createdAt,value
2019-02-05T00:01:40.878Z,47.77
2019-02-05T00:04:09.029Z,40.87
2019-02-05T00:06:37.015Z,44.93
2019-02-05T00:09:11.259Z,42.27
2019-02-05T00:11:39.328Z,42.63
2019-02-05T00:14:07.306Z,42.27
2019-02-05T00:16:35.420Z,45.33
2019-02-05T00:19:03.733Z,44.20
2019-02-05T00:21:33.283Z,46.20
2019-02-05T00:24:03.503Z,46.43
2019-02-05T00:26:31.436Z,42.80
2019-02-05T00:28:59.702Z,42.47
2019-02-05T00:31:27.891Z,50.00
2019-02-05T00:33:57.274Z,47.30
2019-02-05T00:36:25.370Z,49.60
2019-02-05T00:38:53.351Z,49.70
2019-02-05T00:41:21.330Z,51.33
2019-02-05T00:43:49.488Z,50.80
2019-02-05T00:46:18.759Z,48.90
2019-02-05T00:48:47.137Z,52.60
2019-02-05T00:51:17.907Z,53.63
2019-02-05T00:53:45.882Z,51.90
2019-02-05T00:56:17.789Z,54.93
2019-02-05T00:58:48.861Z,50.60
2019-02-05T01:01:16.973Z,52.67
2019-02-05T01:03:45.568Z,57.83
2019-02-05T01:06:13.583Z,58.13
2019-02-05T01:08:44.710Z,56.43
2019-02-05T01:11:13.024Z,53.43
2019-02-05T01:13:41.024Z,55.90
2019-02-05T01:16:11.377Z,58.03
2019-02-05T01:18:40.261Z,58.23
2019-02-05T01:21:16.234Z,54.07
2019-02-05T01:23:52.554Z,62.60
2019-02-05T01:26:29.182Z,62.80
2019-02-05T01:28:51.145Z,61.73
2019-02-05T01:31:20.250Z,59.43
2019-02-05T01:33:53.066Z,56.77
2019-02-05T01:36:21.663Z,62.27
2019-02-05T01:38:52.266Z,66.80
2019-02-05T01:41:22.672Z,62.80
2019-02-05T01:43:58.614Z,62.93
2019-02-05T01:46:28.058Z,65.30
2019-02-05T01:48:57.000Z,68.27
2019-02-05T01:51:29.409Z,64.10
2019-02-05T01:53:58.329Z,64.20
2019-02-05T01:56:40.159Z,67.27
2019-02-05T01:59:02.800Z,66.07
2019-02-05T02:01:40.125Z,67.57
2019-02-05T02:04:08.567Z,68.33
2019-02-05T02:06:36.896Z,67.47
2019-02-05T02:09:06.485Z,70.10
2019-02-05T02:11:47.210Z,71.30
2019-02-05T02:14:22.772Z,66.53
2019-02-05T02:16:51.485Z,68.27
2019-02-05T02:19:23.447Z,68.13
2019-02-05T02:21:52.411Z,69.33
2019-02-05T02:24:28.309Z,71.60
2019-02-05T02:26:57.823Z,70.77
2019-02-05T02:29:30.158Z,68.90
2019-02-05T02:32:02.226Z,65.07
2019-02-05T02:34:31.177Z,72.43
2019-02-05T02:37:02.873Z,69.90
2019-02-05T02:39:31.740Z,65.00
2019-02-05T02:42:00.242Z,77.87
2019-02-05T02:44:30.850Z,78.40
2019-02-05T02:47:01.718Z,77.47
2019-02-05T02:49:30.262Z,75.90
2019-02-05T02:51:58.650Z,72.37
2019-02-05T02:54:27.417Z,75.37
2019-02-05T02:57:04.495Z,81.40
2019-02-05T02:59:25.865Z,80.13
2019-02-05T03:01:54.226Z,78.70
2019-02-05T03:04:32.441Z,76.53
2019-02-05T03:07:05.268Z,87.17
2019-02-05T03:09:35.323Z,81.90
2019-02-05T03:12:03.960Z,75.87
2019-02-05T03:14:33.098Z,81.77
2019-02-05T03:17:01.555Z,83.70
2019-02-05T03:19:29.598Z,79.40
2019-02-05T03:21:57.807Z,74.97
2019-02-05T03:24:25.911Z,75.80
2019-02-05T03:26:53.930Z,80.33
2019-02-05T03:29:21.929Z,88.77
2019-02-05T03:31:50.066Z,81.10
2019-02-05T03:34:18.005Z,85.87
2019-02-05T03:36:46.577Z,80.63
2019-02-05T03:39:14.733Z,84.20
2019-02-05T03:41:43.389Z,81.17
2019-02-05T03:44:11.319Z,80.80
2019-02-05T03:46:39.468Z,86.93
2019-02-05T03:49:08.470Z,86.53
2019-02-05T03:52:12.490Z,83.67
2019-02-05T03:56:03.151Z,86.33
2019-02-05T03:59:26.594Z,92.67
2019-02-05T04:02:46.691Z,88.17
2019-02-05T04:06:12.989Z,87.23
2019-02-05T04:09:59.198Z,95.30
2019-02-05T04:13:33.385Z,96.27
2019-02-05T04:17:08.436Z,81.53
2019-02-05T04:24:14.851Z,91.30
2019-02-05T04:27:30.249Z,95.57
2019-02-05T04:30:56.289Z,90.40
2019-02-05T04:34:17.644Z,94.37
2019-02-05T04:37:48.711Z,96.83
2019-02-05T04:41:09.774Z,91.10
2019-02-05T04:44:37.001Z,109.57
2019-02-05T04:48:13.022Z,99.80
2019-02-05T04:51:56.795Z,106.30
2019-02-05T04:55:28.649Z,103.07
2019-02-05T05:03:09.361Z,104.43
2019-02-05T05:06:23.298Z,106.03
2019-02-05T05:09:52.817Z,112.23
2019-02-05T05:12:21.221Z,120.03
2019-02-05T05:14:49.442Z,110.97
2019-02-05T05:17:17.534Z,119.30
2019-02-05T05:19:46.287Z,124.47
2019-02-05T05:22:17.966Z,120.60
2019-02-05T05:24:46.371Z,112.23
2019-02-05T05:27:17.341Z,127.97
2019-02-05T05:29:48.814Z,131.40
2019-02-05T05:32:18.254Z,111.07
2019-02-05T05:34:51.766Z,134.00
2019-02-05T05:37:18.288Z,142.87
2019-02-05T05:39:46.398Z,135.13
2019-02-05T05:42:16.390Z,138.60
2019-02-05T05:44:44.827Z,138.77
2019-02-05T05:47:12.987Z,125.33
2019-02-05T05:49:41.131Z,139.77
2019-02-05T05:52:12.443Z,144.60
2019-02-05T05:54:51.486Z,137.37
2019-02-05T05:57:20.569Z,145.30
2019-02-05T05:59:54.472Z,143.60
2019-02-05T06:02:22.621Z,145.90
2019-02-05T06:04:53.814Z,148.90
2019-02-05T06:07:23.679Z,167.57
2019-02-05T06:09:51.680Z,163.97
2019-02-05T06:12:21.066Z,145.43
2019-02-05T06:14:49.446Z,159.87
2019-02-05T06:17:20.339Z,156.73
2019-02-05T06:19:50.964Z,163.07
2019-02-05T06:22:19.202Z,143.13
2019-02-05T06:24:51.535Z,158.17
2019-02-05T06:27:20.816Z,170.40
2019-02-05T06:29:53.653Z,152.43
2019-02-05T06:32:21.807Z,152.10
2019-02-05T06:34:49.873Z,159.10
2019-02-05T06:37:22.596Z,169.60
2019-02-05T06:39:52.811Z,176.53
2019-02-05T06:42:21.070Z,154.43
2019-02-05T06:44:52.616Z,159.50
2019-02-05T06:47:23.249Z,167.70
2019-02-05T06:49:51.404Z,164.83
2019-02-05T06:52:19.378Z,161.77
2019-02-05T06:54:51.845Z,159.47
2019-02-05T06:57:20.056Z,178.17
2019-02-05T06:59:48.620Z,174.30
2019-02-05T07:02:21.089Z,169.10
2019-02-05T07:04:49.808Z,190.67
2019-02-05T07:07:21.215Z,179.83
2019-02-05T07:09:49.288Z,172.80
2019-02-05T07:12:17.349Z,159.23
2019-02-05T07:14:45.596Z,178.17
2019-02-05T07:17:13.671Z,182.60
2019-02-05T07:19:41.632Z,189.67
2019-02-05T07:22:12.631Z,202.43
2019-02-05T07:24:40.703Z,200.93
2019-02-05T07:27:16.174Z,200.93
2019-02-05T07:29:44.515Z,188.60
2019-02-05T07:32:12.791Z,192.13
2019-02-05T07:34:40.829Z,208.63
2019-02-05T07:37:09.027Z,201.63
2019-02-05T07:39:37.240Z,212.77
2019-02-05T07:42:05.324Z,224.47
2019-02-05T07:44:33.475Z,194.77
2019-02-05T07:47:02.021Z,205.57
2019-02-05T07:49:29.961Z,204.30
2019-02-05T07:51:58.390Z,204.03
2019-02-05T07:54:26.664Z,202.90
2019-02-05T07:56:55.003Z,228.50
2019-02-05T07:59:26.955Z,208.80
2019-02-05T08:01:55.152Z,198.13
2019-02-05T08:04:23.216Z,201.07
2019-02-05T08:06:51.272Z,212.63
2019-02-05T08:09:19.755Z,199.60
2019-02-05T08:11:47.733Z,203.90
2019-02-05T08:14:15.670Z,210.93
2019-02-05T08:16:43.931Z,218.50
2019-02-05T08:19:12.307Z,224.63
2019-02-05T08:21:40.685Z,206.00
2019-02-05T08:24:08.863Z,229.97
2019-02-05T08:26:38.543Z,222.00
2019-02-05T08:29:06.979Z,193.20
2019-02-05T08:31:35.097Z,210.20
2019-02-05T08:34:04.892Z,201.77
2019-02-05T08:36:35.421Z,202.40
2019-02-05T08:39:10.064Z,200.07
2019-02-05T08:41:38.183Z,214.07
2019-02-05T08:44:06.325Z,209.87
2019-02-05T08:46:34.613Z,207.07
2019-02-05T08:49:02.656Z,203.60
2019-02-05T08:51:30.616Z,225.13
2019-02-05T08:53:58.583Z,203.37
2019-02-05T08:56:27.092Z,209.10
2019-02-05T08:58:55.165Z,192.63
2019-02-05T09:01:23.223Z,200.67
2019-02-05T09:03:51.502Z,201.67
2019-02-05T09:06:19.608Z,222.17
2019-02-05T09:08:49.453Z,204.67
2019-02-05T09:11:17.500Z,196.83
2019-02-05T09:13:45.536Z,176.20
2019-02-05T09:16:13.725Z,185.97
2019-02-05T09:18:41.687Z,192.93
2019-02-05T09:21:09.894Z,203.07
2019-02-05T09:23:38.296Z,192.47
2019-02-05T09:26:08.882Z,194.30
2019-02-05T09:28:36.984Z,200.67
2019-02-05T09:31:05.068Z,183.63
2019-02-05T09:33:33.387Z,196.63
2019-02-05T09:36:01.507Z,187.37
2019-02-05T09:38:29.674Z,177.60
2019-02-05T09:40:57.944Z,178.20
2019-02-05T09:43:26.182Z,189.33
2019-02-05T09:45:54.449Z,180.17
2019-02-05T09:48:22.806Z,194.87
2019-02-05T09:50:51.087Z,170.43
2019-02-05T09:53:19.157Z,173.23
2019-02-05T09:55:49.865Z,170.30
2019-02-05T09:58:20.685Z,184.10
2019-02-05T10:00:48.836Z,168.63
2019-02-05T10:03:16.966Z,178.97
2019-02-05T10:05:45.135Z,189.97
2019-02-05T10:08:13.246Z,169.17
2019-02-05T10:10:41.476Z,164.57
2019-02-05T10:13:09.495Z,165.40
2019-02-05T10:15:39.507Z,170.73
2019-02-05T10:18:10.126Z,153.30
2019-02-05T10:20:39.927Z,161.47
2019-02-05T10:23:09.197Z,164.80
2019-02-05T10:25:37.593Z,149.63
2019-02-05T10:28:09.264Z,161.87
2019-02-05T10:30:40.857Z,148.30
2019-02-05T10:33:09.617Z,142.13
2019-02-05T10:35:37.894Z,143.67
2019-02-05T10:38:08.703Z,143.07
2019-02-05T10:40:37.311Z,156.87
2019-02-05T10:43:06.447Z,126.90
2019-02-05T10:45:34.932Z,163.80
2019-02-05T10:48:04.066Z,135.93
2019-02-05T10:50:32.118Z,133.53
2019-02-05T10:53:00.415Z,127.30
2019-02-05T10:55:28.451Z,126.20
2019-02-05T10:57:56.619Z,133.17
2019-02-05T11:00:27.889Z,123.33
2019-02-05T11:02:58.235Z,108.00
2019-02-05T11:05:29.063Z,125.57
2019-02-05T11:07:57.892Z,124.57
2019-02-05T11:10:27.492Z,119.70
2019-02-05T11:12:55.567Z,118.47
2019-02-05T11:15:29.759Z,115.70
2019-02-05T11:17:58.032Z,121.97
2019-02-05T11:20:27.403Z,118.77
2019-02-05T11:22:58.617Z,103.00
2019-02-05T11:25:26.772Z,116.70
2019-02-05T11:27:54.821Z,125.33
2019-02-05T11:30:31.955Z,103.30
2019-02-05T11:33:02.232Z,99.43
2019-02-05T11:35:31.412Z,102.50
2019-02-05T11:38:01.928Z,98.47
2019-02-05T11:40:32.630Z,105.83
2019-02-05T11:43:00.824Z,92.57
2019-02-05T11:45:29.306Z,100.07
2019-02-05T11:48:00.137Z,95.53
2019-02-05T11:50:29.743Z,94.50
2019-02-05T11:52:57.836Z,94.27
2019-02-05T11:55:27.670Z,91.40
2019-02-05T11:57:56.175Z,96.97
2019-02-05T12:00:43.919Z,81.60
2019-02-05T12:03:12.157Z,85.93
2019-02-05T12:05:40.775Z,82.30
2019-02-05T12:08:11.320Z,92.33
2019-02-05T12:10:39.474Z,75.73
2019-02-05T12:13:07.668Z,81.20
2019-02-05T12:15:38.296Z,88.37
2019-02-05T12:18:08.706Z,81.17
2019-02-05T12:20:37.155Z,77.10
2019-02-05T12:23:08.790Z,73.70
2019-02-05T12:25:36.986Z,74.83
2019-02-05T12:28:05.259Z,79.37
2019-02-05T12:30:44.466Z,86.37
2019-02-05T12:33:07.572Z,84.73
2019-02-05T12:35:36.665Z,77.87
2019-02-05T12:38:09.221Z,76.87
2019-02-05T12:40:37.375Z,74.97
2019-02-05T12:43:05.583Z,71.00
2019-02-05T12:45:35.101Z,64.90
2019-02-05T12:48:03.342Z,70.13
2019-02-05T12:50:33.199Z,64.97
2019-02-05T12:53:01.691Z,67.70
2019-02-05T12:55:32.909Z,68.23
2019-02-05T12:58:00.902Z,69.60
2019-02-05T13:00:32.966Z,68.30
2019-02-05T13:03:01.318Z,76.40
2019-02-05T13:05:29.476Z,78.33
2019-02-05T13:07:57.475Z,81.17
2019-02-05T13:10:29.016Z,77.33
2019-02-05T13:12:57.071Z,74.87
2019-02-05T13:15:25.235Z,76.73
2019-02-05T13:17:59.816Z,79.73
2019-02-05T13:20:28.644Z,71.50
2019-02-05T13:22:57.291Z,78.20
2019-02-05T13:25:29.904Z,73.60
2019-02-05T13:27:58.191Z,67.93
2019-02-05T13:30:29.009Z,69.27
2019-02-05T13:33:01.657Z,73.73
2019-02-05T13:35:30.651Z,63.37
2019-02-05T13:37:58.688Z,62.27
2019-02-05T13:40:27.916Z,56.03
2019-02-05T13:42:57.630Z,57.93
2019-02-05T13:45:29.880Z,58.27
2019-02-05T13:47:58.024Z,63.33
2019-02-05T13:50:33.865Z,61.87
2019-02-05T13:53:02.368Z,66.17
2019-02-05T13:55:40.074Z,56.47
2019-02-05T13:58:08.840Z,55.60
2019-02-05T14:00:46.540Z,51.90
2019-02-05T14:03:14.583Z,56.90
2019-02-05T14:05:45.517Z,74.97
2019-02-05T14:08:13.871Z,61.93
2019-02-05T14:10:42.878Z,61.40
2019-02-05T14:13:11.459Z,58.87
2019-02-05T14:15:41.418Z,73.03
2019-02-05T14:18:09.981Z,55.73
2019-02-05T14:20:41.007Z,64.23
2019-02-05T14:23:09.556Z,62.87
2019-02-05T14:25:37.634Z,65.63
2019-02-05T14:28:05.729Z,64.37
2019-02-05T14:30:57.437Z,69.17
2019-02-05T14:33:32.896Z,72.07
2019-02-05T14:36:01.084Z,64.67
2019-02-05T14:38:29.359Z,65.53
2019-02-05T14:40:58.050Z,66.73
2019-02-05T14:43:29.041Z,71.33
2019-02-05T14:45:57.286Z,67.50
2019-02-05T14:48:25.419Z,70.17
2019-02-05T14:50:53.544Z,75.90
2019-02-05T14:53:21.775Z,80.20
2019-02-05T14:55:49.782Z,72.10
2019-02-05T14:58:18.446Z,66.77
2019-02-05T15:00:46.596Z,65.80
2019-02-05T15:03:14.994Z,67.97
2019-02-05T15:05:44.660Z,67.40
2019-02-05T15:08:14.661Z,60.37
2019-02-05T15:10:42.838Z,61.73
2019-02-05T15:13:12.280Z,55.37
2019-02-05T15:15:42.246Z,58.63
2019-02-05T15:18:15.287Z,51.50
2019-02-05T15:20:46.127Z,55.73
2019-02-05T15:23:14.274Z,51.93
2019-02-05T15:25:44.822Z,51.00
2019-02-05T15:28:12.892Z,47.77
2019-02-05T15:30:42.525Z,51.43
2019-02-05T15:33:29.631Z,49.67
2019-02-05T15:36:04.341Z,47.83
2019-02-05T15:38:32.643Z,48.80
2019-02-05T15:41:03.753Z,48.33
2019-02-05T15:43:34.653Z,48.13
2019-02-05T15:46:04.938Z,48.10
2019-02-05T15:48:33.252Z,49.53
2019-02-05T15:51:01.239Z,47.50
2019-02-05T15:53:29.301Z,46.67
2019-02-05T15:55:57.573Z,43.27
2019-02-05T15:58:25.658Z,48.10
2019-02-05T16:00:53.735Z,47.67
2019-02-05T16:03:21.873Z,45.27
2019-02-05T16:05:50.082Z,47.07
2019-02-05T16:08:18.725Z,47.93
2019-02-05T16:10:48.534Z,52.90
2019-02-05T16:13:16.545Z,48.40
2019-02-05T16:15:44.774Z,45.13
2019-02-05T16:18:12.922Z,44.47
2019-02-05T16:20:41.013Z,49.40
2019-02-05T16:23:09.271Z,53.77
2019-02-05T16:25:37.822Z,51.67
2019-02-05T16:28:06.046Z,53.83
2019-02-05T16:30:34.173Z,49.13
2019-02-05T16:33:02.391Z,52.13
2019-02-05T16:35:30.462Z,46.30
2019-02-05T16:37:58.546Z,49.30
2019-02-05T16:40:28.434Z,45.87
2019-02-05T16:43:01.333Z,49.57
2019-02-05T16:45:32.898Z,53.20
2019-02-05T16:48:00.987Z,48.13
2019-02-05T16:50:39.566Z,44.30
2019-02-05T16:53:08.533Z,50.47
2019-02-05T16:55:39.916Z,49.10
2019-02-05T16:58:08.245Z,48.90
2019-02-05T17:00:36.939Z,44.83
2019-02-05T17:03:05.375Z,43.47
2019-02-05T17:05:36.466Z,42.80
2019-02-05T17:08:12.539Z,43.00
2019-02-05T17:10:40.766Z,41.57
2019-02-05T17:13:15.321Z,38.40
2019-02-05T17:15:56.046Z,37.60
2019-02-05T17:18:25.842Z,34.30
2019-02-05T17:20:58.899Z,32.63
2019-02-05T17:23:33.540Z,32.17
2019-02-05T17:26:11.104Z,32.03
2019-02-05T17:28:46.395Z,33.57
2019-02-05T17:31:21.763Z,34.50
2019-02-05T17:33:56.828Z,29.93
2019-02-05T17:36:36.402Z,31.53
2019-02-05T17:39:31.880Z,30.67
2019-02-05T17:42:00.542Z,37.17
2019-02-05T17:44:30.011Z,31.23
2019-02-05T17:47:01.112Z,40.47
2019-02-05T17:49:30.141Z,37.67
2019-02-05T17:52:03.627Z,40.37
2019-02-05T17:54:32.192Z,38.40
2019-02-05T17:57:00.515Z,41.10
2019-02-05T17:59:31.904Z,40.20
2019-02-05T18:02:00.255Z,43.00
2019-02-05T18:04:34.470Z,41.50
2019-02-05T18:07:05.700Z,42.30
2019-02-05T18:09:37.482Z,41.80
2019-02-05T18:12:08.531Z,43.80
2019-02-05T18:14:38.987Z,36.63
2019-02-05T18:17:09.585Z,36.00
2019-02-05T18:19:37.749Z,40.90
2019-02-05T18:22:09.493Z,38.13
2019-02-05T18:24:38.238Z,39.90
2019-02-05T18:27:07.263Z,45.40
2019-02-05T18:29:37.821Z,37.57
2019-02-05T18:32:07.604Z,44.53
2019-02-05T18:34:37.407Z,43.43
2019-02-05T18:37:10.547Z,41.33
2019-02-05T18:39:51.827Z,44.50
2019-02-05T18:42:20.910Z,46.60
2019-02-05T18:44:50.679Z,47.47
2019-02-05T18:47:22.467Z,44.60
2019-02-05T18:49:54.050Z,49.73
2019-02-05T18:52:25.247Z,48.37
2019-02-05T18:54:56.936Z,39.97
2019-02-05T18:57:26.528Z,47.00
2019-02-05T19:00:14.653Z,45.03
2019-02-05T19:02:48.320Z,51.00
2019-02-05T19:05:20.475Z,48.17
2019-02-05T19:07:48.970Z,52.10
2019-02-05T19:10:22.031Z,51.90
2019-02-05T19:12:51.841Z,54.47
2019-02-05T19:15:25.485Z,52.00
2019-02-05T19:17:56.637Z,52.50
2019-02-05T19:20:27.639Z,53.33
2019-02-05T19:22:59.356Z,56.23
2019-02-05T19:25:47.510Z,58.63
2019-02-05T19:28:35.564Z,68.97
2019-02-05T19:31:18.446Z,62.40
2019-02-05T19:33:46.694Z,64.17
2019-02-05T19:36:15.700Z,79.07
2019-02-05T19:38:47.140Z,70.97
2019-02-05T19:41:22.393Z,72.80
2019-02-05T19:43:50.947Z,78.00
2019-02-05T19:46:41.296Z,86.40
2019-02-05T19:49:22.645Z,80.20
2019-02-05T19:51:51.867Z,75.67
2019-02-05T19:54:20.626Z,78.30
2019-02-05T19:56:54.707Z,81.43
2019-02-05T19:59:24.111Z,80.73
2019-02-05T20:01:54.529Z,76.90
2019-02-05T20:04:26.593Z,82.00
2019-02-05T20:07:02.038Z,73.13
2019-02-05T20:09:30.636Z,71.03
2019-02-05T20:11:59.611Z,70.80
2019-02-05T20:14:29.611Z,70.17
2019-02-05T20:17:03.112Z,68.30
2019-02-05T20:19:33.545Z,62.43
2019-02-05T20:22:07.626Z,66.70
2019-02-05T20:24:40.949Z,69.90
2019-02-05T20:27:09.714Z,62.93
2019-02-05T20:29:40.435Z,65.00
2019-02-05T20:32:23.627Z,61.47
2019-02-05T20:34:59.920Z,60.40
2019-02-05T20:37:30.698Z,59.63
2019-02-05T20:40:01.183Z,57.67
2019-02-05T20:42:31.361Z,67.03
2019-02-05T20:45:00.209Z,64.50
2019-02-05T20:47:32.372Z,63.00
2019-02-05T20:50:08.808Z,75.63
2019-02-05T20:52:37.080Z,66.07
2019-02-05T20:55:07.438Z,64.90
2019-02-05T20:57:41.506Z,66.00
2019-02-05T21:00:19.533Z,68.00
2019-02-05T21:02:47.928Z,66.13
2019-02-05T21:05:17.628Z,71.17
2019-02-05T21:07:46.076Z,73.37
2019-02-05T21:10:21.309Z,80.90
2019-02-05T21:12:52.560Z,73.23
2019-02-05T21:15:23.274Z,75.23
2019-02-05T21:17:53.508Z,76.00
2019-02-05T21:20:33.954Z,86.07
2019-02-05T21:23:13.761Z,86.63
2019-02-05T21:25:44.932Z,88.40
2019-02-05T21:28:13.680Z,86.13
2019-02-05T21:31:00.068Z,83.00
2019-02-05T21:33:28.443Z,88.70
2019-02-05T21:35:56.719Z,91.30
2019-02-05T21:38:27.881Z,96.50
2019-02-05T21:40:55.888Z,84.80
2019-02-05T21:43:24.169Z,98.77
2019-02-05T21:45:52.147Z,93.03
2019-02-05T21:48:20.581Z,88.67
2019-02-05T21:50:48.654Z,95.47
2019-02-05T21:53:19.648Z,88.77
2019-02-05T21:55:47.724Z,90.00
2019-02-05T21:58:15.843Z,100.43
2019-02-05T22:00:43.983Z,96.00
2019-02-05T22:03:12.241Z,92.93
2019-02-05T22:05:40.705Z,95.93
2019-02-05T22:08:09.050Z,104.83
2019-02-05T22:10:37.323Z,100.97
2019-02-05T22:13:07.276Z,94.30
2019-02-05T22:15:35.539Z,91.93
2019-02-05T22:18:03.827Z,100.13
2019-02-05T22:20:31.722Z,98.13
2019-02-05T22:23:00.008Z,101.80
2019-02-05T22:25:31.023Z,98.93
2019-02-05T22:27:59.760Z,95.93
2019-02-05T22:30:39.165Z,99.67
2019-02-05T22:33:13.474Z,96.07
2019-02-05T22:35:46.303Z,99.27
2019-02-05T22:38:26.755Z,93.37
2019-02-05T22:40:58.562Z,94.67
2019-02-05T22:43:32.153Z,89.17
2019-02-05T22:46:01.172Z,81.33
2019-02-05T22:48:32.284Z,79.30
2019-02-05T22:51:19.444Z,89.93
2019-02-05T22:53:48.111Z,77.37
2019-02-05T22:56:22.435Z,78.57
2019-02-05T22:58:57.861Z,74.87
2019-02-05T23:02:01.629Z,60.47
2019-02-05T23:05:28.668Z,62.00
2019-02-05T23:07:58.502Z,50.90
2019-02-05T23:11:37.544Z,51.30
2019-02-05T23:14:06.611Z,49.67
2019-02-05T23:16:39.174Z,49.23
2019-02-05T23:19:09.997Z,47.60
2019-02-05T23:21:44.342Z,52.80
2019-02-05T23:24:13.787Z,48.47
2019-02-05T23:26:48.023Z,42.80
2019-02-05T23:29:19.123Z,43.37
2019-02-05T23:31:59.953Z,43.10
2019-02-05T23:34:31.677Z,46.70
2019-02-05T23:37:00.079Z,39.83
2019-02-05T23:39:31.485Z,40.03
2019-02-05T23:41:59.822Z,35.53
2019-02-05T23:44:28.522Z,39.63
2019-02-05T23:47:03.038Z,33.47
2019-02-05T23:49:34.652Z,41.33
2019-02-05T23:52:08.209Z,36.80
2019-02-05T23:54:40.494Z,36.00
2019-02-05T23:57:16.705Z,28.80
2019-02-05T23:59:51.537Z,37.37
